Time;durP1;ratioP1;P1;durP2;ratioP2;P2;SDS_P1;SDS_P2;PMS_P1;PMS_P2;Temp;Humidity;BMP_temperature;BMP_pressure;BME280_temperature;BME280_humidity;BME280_pressure;Samples;Min_cycle;Max_cycle;Signal;HPM_P1;HPM_P2
2022/08/05 00:01:28;;;;;;;3.22;2.92;;;26.80;69.30;;;;;;5068532;28;20217;-39
2022/08/05 00:03:55;;;;;;;2.97;2.83;;;26.70;69.40;;;;;;5067437;28;20599;-44
2022/08/05 00:06:22;;;;;;;3.05;2.83;;;26.70;69.40;;;;;;5068144;28;20237;-43
2022/08/05 00:08:49;;;;;;;3.30;3.00;;;26.70;69.40;;;;;;5066206;28;20312;-48
2022/08/05 00:11:16;;;;;;;4.10;3.60;;;26.70;69.50;;;;;;5064977;28;20710;-49
2022/08/05 00:13:44;;;;;;;5.15;4.18;;;26.70;69.80;;;;;;5065008;28;20232;-46
2022/08/05 00:16:13;;;;;;;4.93;4.43;;;26.60;69.90;;;;;;5067893;28;20246;-43
2022/08/05 00:18:43;;;;;;;4.85;4.35;;;26.60;70.10;;;;;;5069126;28;20193;-43
2022/08/05 00:21:11;;;;;;;4.85;3.50;;;26.60;70.20;;;;;;5067621;28;20239;-45
2022/08/05 00:23:38;;;;;;;4.05;3.75;;;26.60;70.20;;;;;;5066458;28;20237;-44
2022/08/05 00:26:07;;;;;;;6.32;4.00;;;26.60;70.20;;;;;;5067507;28;20204;-43
2022/08/05 00:28:35;;;;;;;4.60;4.20;;;26.50;71.00;;;;;;5065074;28;20272;-42
2022/08/05 00:31:02;;;;;;;5.55;4.65;;;26.50;70.50;;;;;;5066408;28;20653;-43
2022/08/05 00:33:29;;;;;;;5.60;5.07;;;26.40;70.80;;;;;;5065135;28;20737;-46
2022/08/05 00:35:57;;;;;;;5.13;4.55;;;26.40;70.90;;;;;;5067058;28;20224;-45
2022/08/05 00:38:24;;;;;;;7.25;4.72;;;26.30;71.00;;;;;;5067733;28;20208;-42
2022/08/05 00:40:53;;;;;;;5.00;4.50;;;26.30;71.30;;;;;;5066409;28;20220;-40
2022/08/05 00:43:21;;;;;;;4.00;3.70;;;26.30;71.50;;;;;;5063146;28;20220;-41
2022/08/05 00:45:48;;;;;;;5.00;4.60;;;26.20;71.40;;;;;;5065834;28;20623;-39
2022/08/05 00:48:18;;;;;;;4.95;4.55;;;26.20;71.60;;;;;;5066493;28;20552;-43
2022/08/05 00:50:47;;;;;;;4.28;3.97;;;26.20;71.80;;;;;;5064339;28;20672;-40
2022/08/05 00:53:17;;;;;;;4.30;3.90;;;26.10;71.90;;;;;;5062599;28;20279;-43
2022/08/05 00:55:45;;;;;;;4.97;4.45;;;26.10;72.00;;;;;;5062947;28;20699;-43
2022/08/05 00:58:13;;;;;;;6.43;3.83;;;26.10;72.90;;;;;;5095392;28;20198;-41
2022/08/05 01:00:40;;;;;;;6.32;3.90;;;26.00;72.20;;;;;;5068249;28;20271;-42
2022/08/05 01:03:07;;;;;;;4.35;3.67;;;26.00;72.40;;;;;;5063247;28;20689;-41
2022/08/05 01:05:34;;;;;;;18.10;4.10;;;26.00;72.40;;;;;;5066352;28;20225;-40
2022/08/05 01:08:02;;;;;;;4.38;4.03;;;26.00;72.50;;;;;;5065449;28;20190;-42
2022/08/05 01:10:35;;;;;;;4.05;3.20;;;25.90;72.50;;;;;;5064352;28;20620;-41
2022/08/05 01:13:10;;;;;;;3.40;3.08;;;25.90;72.60;;;;;;5060601;28;20612;-40
2022/08/05 01:15:46;;;;;;;3.90;3.25;;;25.90;72.70;;;;;;5073162;28;20193;-38
2022/08/05 01:18:22;;;;;;;3.55;3.35;;;25.80;72.80;;;;;;5068896;28;20221;-39
2022/08/05 01:21:01;;;;;;;4.10;3.35;;;25.80;72.90;;;;;;5070233;28;20213;-42
2022/08/05 01:23:42;;;;;;;3.08;2.88;;;25.90;73.00;;;;;;5066669;28;20286;-39
2022/08/05 01:26:28;;;;;;;3.85;3.30;;;25.90;73.10;;;;;;5069497;28;20645;-47
2022/08/05 01:28:59;;;;;;;3.30;3.10;;;25.80;73.00;;;;;;5066326;28;20530;-40
2022/08/05 01:31:33;;;;;;;3.00;2.80;;;25.90;73.10;;;;;;5069503;28;20197;-40
2022/08/05 01:34:04;;;;;;;2.47;2.38;;;25.80;73.10;;;;;;5065953;28;20197;-39
2022/08/05 01:36:39;;;;;;;2.35;2.25;;;25.80;73.20;;;;;;5067808;28;20597;-39
2022/08/05 01:39:06;;;;;;;2.08;1.98;;;25.70;73.30;;;;;;5066339;28;20264;-39
2022/08/05 01:41:36;;;;;;;2.10;2.00;;;25.70;73.40;;;;;;5068894;28;20205;-39
2022/08/05 01:44:08;;;;;;;3.45;2.00;;;25.60;73.60;;;;;;5065332;28;20209;-43
2022/08/05 01:46:36;;;;;;;2.53;2.20;;;25.60;73.80;;;;;;5066636;28;20208;-39
2022/08/05 01:49:05;;;;;;;2.72;2.63;;;25.50;73.90;;;;;;5067521;28;20201;-40
2022/08/05 01:51:36;;;;;;;2.28;2.17;;;25.50;74.00;;;;;;5064819;28;20193;-39
2022/08/05 01:54:05;;;;;;;2.85;2.65;;;25.50;74.10;;;;;;5068825;28;20714;-42
2022/08/05 01:56:37;;;;;;;2.92;2.72;;;25.50;74.30;;;;;;5066091;28;20662;-44
2022/08/05 01:59:09;;;;;;;3.55;2.30;;;25.40;74.40;;;;;;5066442;28;20193;-45
2022/08/05 02:01:37;;;;;;;2.67;2.50;;;25.40;74.50;;;;;;5065912;28;20225;-43
2022/08/05 02:04:06;;;;;;;2.50;2.40;;;25.30;74.50;;;;;;5067783;28;20242;-44
2022/08/05 02:06:34;;;;;;;3.00;2.80;;;25.30;74.70;;;;;;5069891;28;20194;-40
2022/08/05 02:09:01;;;;;;;4.20;2.45;;;25.30;74.90;;;;;;5067901;28;20254;-44
2022/08/05 02:11:37;;;;;;;3.03;2.78;;;25.30;75.00;;;;;;5070073;28;20193;-38
2022/08/05 02:14:11;;;;;;;2.53;2.38;;;25.20;75.00;;;;;;5067147;28;20284;-40
2022/08/05 02:16:45;;;;;;;2.70;2.50;;;25.20;75.10;;;;;;5065166;28;20665;-40
2022/08/05 02:19:18;;;;;;;2.80;2.60;;;25.10;75.20;;;;;;5067772;28;20658;-45
2022/08/05 02:21:52;;;;;;;3.75;2.97;;;25.20;75.50;;;;;;5068297;28;20261;-45
2022/08/05 02:24:23;;;;;;;5.70;3.47;;;25.20;75.60;;;;;;5067554;28;20225;-40
2022/08/05 02:26:54;;;;;;;2.88;2.78;;;25.10;75.70;;;;;;5068275;28;20661;-46
2022/08/05 02:29:25;;;;;;;3.85;2.67;;;25.10;75.80;;;;;;5066099;28;20202;-47
2022/08/05 02:31:57;;;;;;;2.72;2.63;;;25.10;75.80;;;;;;5069244;28;20193;-43
2022/08/05 02:34:27;;;;;;;3.33;3.13;;;25.10;75.90;;;;;;5066568;28;20186;-48
2022/08/05 02:36:58;;;;;;;3.10;2.90;;;25.10;76.00;;;;;;5067545;28;20305;-42
2022/08/05 02:39:27;;;;;;;3.25;3.05;;;25.10;76.00;;;;;;5067484;28;20304;-48
2022/08/05 02:41:57;;;;;;;3.30;3.00;;;25.00;76.10;;;;;;5067004;28;20205;-44
2022/08/05 02:44:28;;;;;;;3.47;3.17;;;25.00;76.20;;;;;;5067736;28;20554;-42
2022/08/05 02:46:56;;;;;;;3.63;3.33;;;25.00;76.30;;;;;;5070704;28;20239;-48
2022/08/05 02:49:24;;;;;;;2.85;2.65;;;25.00;76.30;;;;;;5067340;28;20620;-44
2022/08/05 02:51:52;;;;;;;2.97;2.88;;;25.00;76.30;;;;;;5070183;28;20197;-44
2022/08/05 02:54:22;;;;;;;4.20;2.50;;;25.00;76.30;;;;;;5065871;28;20194;-42
2022/08/05 02:56:49;;;;;;;3.25;3.05;;;25.00;76.30;;;;;;5070350;28;20196;-45
2022/08/05 02:59:19;;;;;;;2.90;2.72;;;24.90;76.40;;;;;;5067861;28;20206;-43
2022/08/05 03:01:50;;;;;;;3.72;3.45;;;24.90;76.50;;;;;;5071426;28;20280;-46
2022/08/05 03:04:19;;;;;;;2.80;2.70;;;24.90;76.70;;;;;;5069657;28;20296;-41
2022/08/05 03:06:46;;;;;;;2.85;2.70;;;24.90;76.70;;;;;;5069656;28;20219;-43
2022/08/05 03:09:14;;;;;;;3.00;2.80;;;24.90;76.80;;;;;;5069838;28;20221;-39
2022/08/05 03:11:43;;;;;;;3.17;2.97;;;24.90;76.80;;;;;;5069137;28;20201;-39
2022/08/05 03:14:10;;;;;;;2.70;2.50;;;24.90;76.80;;;;;;5063439;28;20220;-42
2022/08/05 03:16:37;;;;;;;4.00;3.38;;;24.90;76.80;;;;;;5068410;28;20275;-39
2022/08/05 03:19:06;;;;;;;5.13;3.70;;;24.90;77.00;;;;;;5069495;28;20533;-39
2022/08/05 03:21:33;;;;;;;5.28;3.30;;;24.90;77.00;;;;;;5067112;28;20272;-42
2022/08/05 03:24:01;;;;;;;4.20;3.90;;;24.80;76.90;;;;;;5066487;28;20234;-42
2022/08/05 03:26:28;;;;;;;5.20;4.70;;;24.80;77.10;;;;;;5066096;28;20229;-40
2022/08/05 03:28:55;;;;;;;4.60;4.20;;;24.80;77.20;;;;;;5064778;28;20198;-41
2022/08/05 03:31:24;;;;;;;4.20;3.90;;;24.70;77.30;;;;;;5068116;28;20606;-41
2022/08/05 03:33:52;;;;;;;4.65;3.70;;;24.70;77.50;;;;;;5066811;28;20269;-42
2022/08/05 03:36:20;;;;;;;5.28;4.03;;;24.70;77.50;;;;;;5067829;28;20201;-39
2022/08/05 03:38:47;;;;;;;3.50;3.17;;;24.70;77.70;;;;;;5067373;28;20196;-42
2022/08/05 03:41:16;;;;;;;2.88;2.67;;;24.70;77.70;;;;;;5069155;28;20233;-42
2022/08/05 03:43:43;;;;;;;4.35;3.95;;;24.70;77.60;;;;;;5064273;28;20236;-39
2022/08/05 03:46:10;;;;;;;2.90;2.65;;;24.70;77.80;;;;;;5067828;28;20254;-39
2022/08/05 03:48:37;;;;;;;3.08;2.90;;;24.60;77.60;;;;;;5066009;28;20641;-41
2022/08/05 03:51:11;;;;;;;3.00;2.80;;;24.60;78.40;;;;;;5066198;28;20190;-41
2022/08/05 03:53:47;;;;;;;4.45;3.35;;;24.60;77.70;;;;;;5066855;28;20614;-44
2022/08/05 03:56:24;;;;;;;3.95;3.65;;;24.60;77.80;;;;;;5064344;28;20235;-47
2022/08/05 03:58:55;;;;;;;4.25;3.60;;;24.60;77.90;;;;;;5063847;28;20267;-41
2022/08/05 04:01:23;;;;;;;4.55;3.83;;;24.60;78.00;;;;;;5068647;28;20201;-45
2022/08/05 04:03:51;;;;;;;4.40;4.07;;;24.60;78.10;;;;;;5061971;28;20229;-43
2022/08/05 04:06:19;;;;;;;5.65;4.53;;;24.60;78.10;;;;;;5069286;28;20194;-46
2022/08/05 04:08:48;;;;;;;5.97;4.35;;;24.60;78.20;;;;;;5064005;28;20262;-41
2022/08/05 04:11:16;;;;;;;5.15;4.45;;;24.50;78.20;;;;;;5068099;28;20276;-41
2022/08/05 04:13:44;;;;;;;5.15;4.68;;;24.50;78.40;;;;;;5065189;28;20645;-45
2022/08/05 04:16:13;;;;;;;5.25;4.75;;;24.50;78.50;;;;;;5067829;28;20205;-41
2022/08/05 04:18:40;;;;;;;5.40;4.20;;;24.50;78.60;;;;;;5065763;28;20205;-42
2022/08/05 04:21:07;;;;;;;7.35;4.63;;;24.40;78.60;;;;;;5066153;28;20218;-43
2022/08/05 04:23:35;;;;;;;5.88;4.53;;;24.40;78.70;;;;;;5065022;28;20719;-41
2022/08/05 04:26:04;;;;;;;4.68;4.20;;;24.40;78.80;;;;;;5067957;28;20189;-45
2022/08/05 04:28:31;;;;;;;4.30;4.00;;;24.30;78.70;;;;;;5062664;28;20268;-43
2022/08/05 04:30:59;;;;;;;5.45;4.95;;;24.30;78.80;;;;;;5066521;28;20296;-45
2022/08/05 04:33:26;;;;;;;4.40;4.10;;;24.30;78.90;;;;;;5064371;28;20196;-42
2022/08/05 04:35:53;;;;;;;5.60;4.00;;;24.30;79.00;;;;;;5068219;28;20543;-45
2022/08/05 04:38:20;;;;;;;4.38;3.97;;;24.30;79.10;;;;;;5065714;28;20189;-46
2022/08/05 04:40:47;;;;;;;4.32;3.97;;;24.30;79.20;;;;;;5066242;28;20228;-40
2022/08/05 04:43:16;;;;;;;4.18;3.88;;;24.30;79.20;;;;;;5063729;28;20283;-39
2022/08/05 04:45:43;;;;;;;4.75;4.00;;;24.30;79.30;;;;;;5066825;28;20576;-47
2022/08/05 04:48:12;;;;;;;4.28;3.88;;;24.30;79.30;;;;;;5064621;28;20197;-44
2022/08/05 04:50:41;;;;;;;4.05;3.80;;;24.40;79.40;;;;;;5066926;28;20203;-41
2022/08/05 04:53:09;;;;;;;4.63;4.22;;;24.40;79.40;;;;;;5066982;28;20272;-44
2022/08/05 04:55:36;;;;;;;4.45;4.05;;;24.40;79.50;;;;;;5063842;28;20251;-41
2022/08/05 04:58:04;;;;;;;4.15;3.83;;;24.40;79.60;;;;;;5065637;28;20211;-45
2022/08/05 05:00:33;;;;;;;4.72;4.32;;;24.40;80.40;;;;;;5070460;28;20197;-47
2022/08/05 05:03:00;;;;;;;4.45;4.13;;;24.40;79.60;;;;;;5066724;28;20205;-45
2022/08/05 05:05:27;;;;;;;4.05;3.75;;;24.40;79.60;;;;;;5067931;28;20352;-44
2022/08/05 05:07:55;;;;;;;3.80;3.60;;;24.40;79.70;;;;;;5066294;28;20281;-45
2022/08/05 05:10:22;;;;;;;4.22;3.90;;;24.40;79.80;;;;;;5067926;28;20205;-38
2022/08/05 05:12:49;;;;;;;4.78;3.83;;;24.40;79.80;;;;;;5064978;28;20199;-42
2022/08/05 05:15:16;;;;;;;7.47;3.88;;;24.40;79.90;;;;;;5066397;28;20228;-38
2022/08/05 05:17:45;;;;;;;8.65;4.68;;;24.40;79.90;;;;;;5067045;28;20225;-39
2022/08/05 05:20:13;;;;;;;6.35;4.25;;;24.50;80.00;;;;;;5065460;28;20194;-39
2022/08/05 05:22:40;;;;;;;4.63;4.22;;;24.50;80.10;;;;;;5066679;28;20296;-39
2022/08/05 05:25:09;;;;;;;4.45;4.05;;;24.50;80.00;;;;;;5064605;28;20232;-40
2022/08/05 05:27:36;;;;;;;4.95;3.95;;;24.50;79.90;;;;;;5067207;28;20197;-45
2022/08/05 05:30:05;;;;;;;4.45;4.05;;;24.50;79.80;;;;;;5063411;28;20200;-45
2022/08/05 05:32:32;;;;;;;4.30;3.90;;;24.50;79.70;;;;;;5066649;28;20581;-41
2022/08/05 05:35:00;;;;;;;3.80;3.60;;;24.50;79.70;;;;;;5064723;28;20243;-40
2022/08/05 05:37:27;;;;;;;4.75;3.80;;;24.50;79.70;;;;;;5066927;28;20660;-40
2022/08/05 05:39:54;;;;;;;4.07;3.85;;;24.50;79.70;;;;;;5064629;28;20680;-45
2022/08/05 05:42:21;;;;;;;5.55;3.85;;;24.60;79.80;;;;;;5067084;28;20201;-45
2022/08/05 05:44:48;;;;;;;5.47;3.70;;;24.60;79.60;;;;;;5063767;28;20207;-44
2022/08/05 05:47:15;;;;;;;4.00;3.65;;;24.70;79.50;;;;;;5067810;28;20232;-48
2022/08/05 05:49:42;;;;;;;3.70;3.42;;;24.70;79.30;;;;;;5066685;28;20225;-40
2022/08/05 05:52:11;;;;;;;3.63;3.42;;;24.70;79.40;;;;;;5067832;28;20228;-42
2022/08/05 05:54:38;;;;;;;9.88;4.03;;;24.70;79.20;;;;;;5067419;28;20201;-44
2022/08/05 05:57:05;;;;;;;6.40;4.03;;;24.80;79.30;;;;;;5065634;28;20196;-46
2022/08/05 05:59:32;;;;;;;4.72;4.10;;;24.80;79.20;;;;;;5065991;28;20874;-47
2022/08/05 06:01:59;;;;;;;4.68;3.60;;;24.80;79.20;;;;;;5069227;28;20273;-46
2022/08/05 06:04:26;;;;;;;4.22;3.83;;;24.90;79.40;;;;;;5070328;28;20214;-44
2022/08/05 06:06:53;;;;;;;5.75;3.65;;;24.90;80.20;;;;;;5070418;28;20598;-43
2022/08/05 06:09:22;;;;;;;4.25;3.78;;;24.90;79.20;;;;;;5071441;28;20725;-41
2022/08/05 06:11:49;;;;;;;5.82;3.90;;;25.00;79.40;;;;;;5068927;28;20667;-43
2022/08/05 06:14:16;;;;;;;6.35;4.50;;;25.00;79.40;;;;;;5068064;28;20194;-45
2022/08/05 06:16:43;;;;;;;6.45;3.65;;;25.00;79.40;;;;;;5068335;28;20598;-43
2022/08/05 06:19:10;;;;;;;12.13;4.18;;;25.00;79.40;;;;;;5068680;28;20213;-44
2022/08/05 06:21:37;;;;;;;4.18;3.78;;;25.10;79.30;;;;;;5066347;28;20721;-44
2022/08/05 06:24:05;;;;;;;4.00;3.40;;;25.10;79.20;;;;;;5065983;28;20244;-46
2022/08/05 06:26:33;;;;;;;3.38;3.13;;;25.20;79.30;;;;;;5069159;28;20224;-48
2022/08/05 06:29:01;;;;;;;4.82;3.72;;;25.20;79.20;;;;;;5067317;28;20193;-43
2022/08/05 06:31:28;;;;;;;5.03;3.65;;;25.30;79.20;;;;;;5067535;28;20666;-42
2022/08/05 06:33:55;;;;;;;4.43;3.50;;;25.30;79.00;;;;;;5065431;28;20192;-44
2022/08/05 06:36:22;;;;;;;4.45;3.65;;;25.40;78.60;;;;;;5068560;28;20198;-42
2022/08/05 06:38:52;;;;;;;4.10;3.67;;;25.40;79.20;;;;;;5069333;28;20215;-44
2022/08/05 06:41:19;;;;;;;5.38;3.80;;;25.50;78.40;;;;;;5069268;28;20209;-39
2022/08/05 06:43:48;;;;;;;3.80;3.42;;;25.50;78.10;;;;;;5067738;28;20229;-40
2022/08/05 06:46:15;;;;;;;3.83;3.40;;;25.60;78.00;;;;;;5069274;28;20236;-39
2022/08/05 06:48:42;;;;;;;3.95;3.58;;;25.60;77.90;;;;;;5071101;28;20286;-39
2022/08/05 06:51:09;;;;;;;3.83;3.50;;;25.70;77.80;;;;;;5071565;28;20196;-45
2022/08/05 06:53:37;;;;;;;4.65;3.47;;;25.70;77.30;;;;;;5067464;28;20658;-41
2022/08/05 06:56:04;;;;;;;6.43;3.65;;;25.70;77.30;;;;;;5068338;28;20291;-43
2022/08/05 06:58:32;;;;;;;4.60;4.05;;;25.80;77.50;;;;;;5067397;28;20197;-44
2022/08/05 07:01:01;;;;;;;8.73;3.40;;;25.90;77.30;;;;;;5070857;28;20221;-46
2022/08/05 07:03:29;;;;;;;7.32;3.33;;;26.00;77.10;;;;;;5070002;28;20289;-44
2022/08/05 07:05:56;;;;;;;6.18;3.30;;;26.00;76.60;;;;;;5064332;28;20370;-39
2022/08/05 07:08:23;;;;;;;3.95;3.20;;;26.10;76.30;;;;;;5068550;28;20220;-43
2022/08/05 07:10:51;;;;;;;3.40;3.20;;;26.20;76.10;;;;;;5069281;28;20228;-47
2022/08/05 07:18:48;;;;;;;3.35;2.75;;;26.30;75.50;;;;;;5047992;28;20565;-45
2022/08/05 07:21:15;;;;;;;3.33;3.00;;;26.30;75.50;;;;;;5069263;28;20215;-40
2022/08/05 07:23:42;;;;;;;3.67;3.40;;;26.40;75.80;;;;;;5066161;28;20240;-45
2022/08/05 07:26:09;;;;;;;3.63;3.30;;;26.50;76.00;;;;;;5066042;28;20232;-40
2022/08/05 07:28:36;;;;;;;3.30;2.70;;;26.50;74.70;;;;;;5064364;28;20216;-40
2022/08/05 07:31:06;;;;;;;3.72;3.42;;;26.60;74.60;;;;;;5067498;28;20197;-45
2022/08/05 07:33:33;;;;;;;3.33;2.90;;;26.60;74.50;;;;;;5068248;28;20608;-43
2022/08/05 07:36:00;;;;;;;5.22;3.38;;;26.70;74.50;;;;;;5066051;28;20632;-44
2022/08/05 07:38:27;;;;;;;3.22;2.80;;;26.80;75.40;;;;;;5067501;28;20197;-40
2022/08/05 07:40:54;;;;;;;4.35;3.00;;;26.80;74.30;;;;;;5067391;28;20260;-44
2022/08/05 07:43:21;;;;;;;3.30;2.80;;;26.90;74.80;;;;;;5066681;28;20794;-43
2022/08/05 07:45:49;;;;;;;3.28;3.08;;;27.00;73.90;;;;;;5069515;28;20745;-41
2022/08/05 07:48:17;;;;;;;4.18;2.95;;;27.10;73.60;;;;;;5067888;28;20236;-45
2022/08/05 07:50:44;;;;;;;3.00;2.80;;;27.10;73.30;;;;;;5067055;28;20196;-41
2022/08/05 07:53:11;;;;;;;3.15;2.90;;;27.20;73.70;;;;;;5065931;28;20193;-43
2022/08/05 07:55:38;;;;;;;4.03;3.17;;;27.30;72.50;;;;;;5063528;28;20599;-45
2022/08/05 07:58:05;;;;;;;4.40;3.25;;;27.30;71.40;;;;;;5064423;28;20581;-41
2022/08/05 08:00:32;;;;;;;3.13;2.83;;;27.40;71.30;;;;;;5067069;28;20200;-42
2022/08/05 08:02:59;;;;;;;2.53;2.42;;;27.50;71.40;;;;;;5066417;28;20232;-43
2022/08/05 08:05:28;;;;;;;2.33;2.15;;;27.50;71.30;;;;;;5067017;28;20288;-43
2022/08/05 08:07:55;;;;;;;11.73;2.85;;;27.60;71.30;;;;;;5066839;28;20722;-47
2022/08/05 08:10:22;;;;;;;5.75;2.95;;;27.70;71.10;;;;;;5067771;28;20289;-41
2022/08/05 08:12:50;;;;;;;2.97;2.17;;;27.80;69.80;;;;;;5065447;28;20194;-38
2022/08/05 08:15:17;;;;;;;5.43;2.70;;;27.90;69.50;;;;;;5064645;28;20194;-43
2022/08/05 08:17:45;;;;;;;3.22;2.92;;;28.00;69.10;;;;;;5065652;28;20243;-39
2022/08/05 08:20:12;;;;;;;3.97;2.60;;;28.00;68.70;;;;;;5064398;28;20247;-41
2022/08/05 08:22:40;;;;;;;2.58;2.38;;;28.10;68.00;;;;;;5065179;28;20577;-41
2022/08/05 08:25:09;;;;;;;3.10;2.38;;;28.20;67.90;;;;;;5064367;28;20236;-40
2022/08/05 08:27:36;;;;;;;4.57;2.20;;;28.30;67.90;;;;;;5063554;28;20193;-43
2022/08/05 08:30:03;;;;;;;2.70;2.30;;;28.40;67.80;;;;;;5061630;28;20279;-39
2022/08/05 08:32:34;;;;;;;6.35;2.58;;;28.50;67.60;;;;;;5066423;28;20217;-42
2022/08/05 08:35:02;;;;;;;3.85;2.45;;;28.60;66.90;;;;;;5066567;28;20314;-40
2022/08/05 08:37:29;;;;;;;3.17;2.35;;;28.70;66.00;;;;;;5066977;28;20209;-41
2022/08/05 08:39:57;;;;;;;3.10;2.30;;;28.80;65.60;;;;;;5068009;28;20288;-42
2022/08/05 08:42:25;;;;;;;3.33;2.08;;;28.80;64.70;;;;;;5068020;28;20657;-44
2022/08/05 08:44:54;;;;;;;2.75;2.55;;;28.80;64.20;;;;;;5063770;28;20300;-46
2022/08/05 08:47:23;;;;;;;2.33;2.20;;;28.90;63.40;;;;;;5065463;28;20675;-44
2022/08/05 08:49:53;;;;;;;4.85;2.45;;;28.90;63.30;;;;;;5064398;28;20197;-47
2022/08/05 08:52:24;;;;;;;5.20;2.60;;;29.00;62.20;;;;;;5066608;28;20560;-41
2022/08/05 08:54:53;;;;;;;3.08;1.70;;;29.00;61.70;;;;;;5064463;28;20243;-42
2022/08/05 08:57:22;;;;;;;6.70;2.83;;;29.10;62.10;;;;;;5062713;28;20542;-45
2022/08/05 08:59:49;;;;;;;10.40;2.83;;;29.20;62.20;;;;;;5065025;28;20220;-47
2022/08/05 09:02:19;;;;;;;2.58;2.38;;;29.30;62.40;;;;;;5070658;28;20655;-44
2022/08/05 09:04:47;;;;;;;2.53;2.42;;;29.40;61.40;;;;;;5068238;28;20223;-42
2022/08/05 09:07:14;;;;;;;2.17;2.08;;;29.40;60.80;;;;;;5065414;28;20194;-45
2022/08/05 09:09:42;;;;;;;8.98;3.00;;;29.50;60.80;;;;;;5065549;28;20272;-48
2022/08/05 09:12:10;;;;;;;4.82;2.10;;;29.60;60.60;;;;;;5066577;28;20320;-45
2022/08/05 09:14:39;;;;;;;2.28;2.13;;;29.60;59.90;;;;;;5065006;28;20185;-46
2022/08/05 09:17:07;;;;;;;4.10;2.13;;;29.70;60.30;;;;;;5065833;28;20665;-43
2022/08/05 09:19:35;;;;;;;2.20;2.00;;;29.80;59.50;;;;;;5062796;28;20270;-41
2022/08/05 09:22:02;;;;;;;2.33;2.20;;;29.80;59.10;;;;;;5067742;28;20181;-44
2022/08/05 09:24:29;;;;;;;2.20;2.00;;;29.90;59.30;;;;;;5066642;28;20291;-46
2022/08/05 09:26:58;;;;;;;11.60;2.25;;;30.00;59.30;;;;;;5066001;28;20345;-48
2022/08/05 09:29:41;;;;;;;2.60;2.38;;;30.10;58.70;;;;;;5064310;28;20341;-41
2022/08/05 09:32:10;;;;;;;8.52;2.10;;;30.10;58.10;;;;;;5067291;28;20542;-44
2022/08/05 09:34:47;;;;;;;2.33;2.20;;;30.20;58.40;;;;;;5061082;28;20185;-48
2022/08/05 09:37:18;;;;;;;2.03;1.92;;;30.30;58.30;;;;;;5067932;28;20220;-41
2022/08/05 09:39:46;;;;;;;4.10;2.40;;;30.40;57.40;;;;;;5066861;28;20218;-45
2022/08/05 09:42:14;;;;;;;2.92;1.67;;;30.50;57.10;;;;;;5068353;28;20694;-41
2022/08/05 09:44:44;;;;;;;2.00;1.80;;;30.50;56.80;;;;;;5067152;28;20546;-42
2022/08/05 09:47:13;;;;;;;3.20;1.80;;;30.60;56.60;;;;;;5068707;28;20622;-42
2022/08/05 09:49:43;;;;;;;1.67;1.60;;;30.60;56.40;;;;;;5066475;28;20702;-46
2022/08/05 09:52:21;;;;;;;2.97;1.92;;;30.70;56.60;;;;;;5070604;28;20696;-43
2022/08/05 09:54:56;;;;;;;5.35;2.00;;;30.70;56.30;;;;;;5068297;28;20189;-45
2022/08/05 09:57:31;;;;;;;2.42;2.03;;;30.70;55.90;;;;;;5066598;28;20198;-42
2022/08/05 10:00:01;;;;;;;2.30;2.17;;;30.80;55.60;;;;;;5068842;28;20208;-46
2022/08/05 10:02:32;;;;;;;3.17;2.00;;;30.90;55.50;;;;;;5069807;28;20186;-45
2022/08/05 10:05:08;;;;;;;4.30;2.00;;;30.90;55.20;;;;;;5069714;28;20233;-43
2022/08/05 10:07:53;;;;;;;4.47;1.88;;;30.90;54.60;;;;;;5070462;28;20201;-45
2022/08/05 10:10:21;;;;;;;1.88;1.73;;;31.00;54.60;;;;;;5068565;28;20265;-45
2022/08/05 10:12:50;;;;;;;3.33;2.05;;;31.00;54.40;;;;;;5068094;28;20391;-45
2022/08/05 10:15:24;;;;;;;2.25;1.75;;;31.00;54.40;;;;;;5067338;28;20190;-43
2022/08/05 10:18:12;;;;;;;3.53;1.88;;;31.10;54.80;;;;;;5069167;28;20276;-42
2022/08/05 10:20:42;;;;;;;3.17;2.10;;;31.10;55.10;;;;;;5066544;28;20623;-46
2022/08/05 10:23:12;;;;;;;2.22;2.03;;;31.20;55.10;;;;;;5065420;28;20256;-48
2022/08/05 10:25:39;;;;;;;5.10;1.75;;;31.30;55.50;;;;;;5068534;28;20210;-40
2022/08/05 10:28:07;;;;;;;3.63;2.15;;;31.30;54.30;;;;;;5067013;28;20658;-39
2022/08/05 10:30:37;;;;;;;5.65;1.88;;;31.40;54.10;;;;;;5067955;28;20193;-43
2022/08/05 10:33:05;;;;;;;6.07;2.10;;;31.50;53.70;;;;;;5066682;28;20630;-47
2022/08/05 10:35:32;;;;;;;1.88;1.77;;;31.50;53.00;;;;;;5067869;28;20407;-39
2022/08/05 10:38:00;;;;;;;2.80;2.60;;;31.60;53.40;;;;;;5065912;28;20202;-45
2022/08/05 10:40:34;;;;;;;3.28;2.20;;;31.60;53.60;;;;;;5068155;28;20197;-43
2022/08/05 10:43:13;;;;;;;2.00;1.88;;;31.60;53.30;;;;;;5065020;28;20288;-39
2022/08/05 10:45:41;;;;;;;4.50;2.17;;;31.70;53.40;;;;;;5067817;28;20209;-42
2022/08/05 10:48:30;;;;;;;3.80;2.00;;;31.70;53.10;;;;;;5067950;28;20538;-42
2022/08/05 10:50:58;;;;;;;2.42;2.00;;;31.70;52.70;;;;;;5062444;28;20213;-45
2022/08/05 10:53:40;;;;;;;4.05;2.22;;;31.80;52.60;;;;;;5069517;28;20198;-44
2022/08/05 10:56:10;;;;;;;2.42;2.10;;;31.80;52.50;;;;;;5065890;28;20741;-46
2022/08/05 10:58:48;;;;;;;9.38;2.38;;;31.80;52.90;;;;;;5066665;28;20205;-42
2022/08/05 11:01:17;;;;;;;5.22;2.50;;;31.80;52.50;;;;;;5066585;28;20197;-47
2022/08/05 11:04:00;;;;;;;2.63;2.10;;;31.90;52.40;;;;;;5068397;28;20221;-40
2022/08/05 11:06:27;;;;;;;4.95;2.30;;;32.00;53.10;;;;;;5068192;28;20319;-43
2022/08/05 11:09:27;;;;;;;2.60;1.90;;;32.00;53.10;;;;;;5067204;28;20196;-45
2022/08/05 11:11:56;;;;;;;2.10;2.00;;;32.00;53.40;;;;;;5022602;28;20237;-41
2022/08/05 11:14:28;;;;;;;1.80;1.70;;;32.10;52.50;;;;;;5003681;28;20202;-41
2022/08/05 11:17:33;;;;;;;2.05;1.85;;;32.20;52.30;;;;;;5044779;28;20205;-41
2022/08/05 11:20:01;;;;;;;3.60;2.58;;;32.20;52.00;;;;;;5066308;28;20200;-39
2022/08/05 11:22:40;;;;;;;8.45;2.28;;;32.30;52.20;;;;;;5066243;28;20224;-44
2022/08/05 11:25:34;;;;;;;7.00;2.10;;;32.30;51.80;;;;;;5065475;28;20232;-44
2022/08/05 11:28:41;;;;;;;4.40;2.63;;;32.40;51.90;;;;;;5066183;28;20720;-40
2022/08/05 11:31:30;;;;;;;6.47;2.20;;;32.50;51.30;;;;;;5067337;28;20195;-44
2022/08/05 11:34:02;;;;;;;3.97;2.20;;;32.40;51.00;;;;;;5068019;28;20201;-46
2022/08/05 11:36:49;;;;;;;5.35;2.30;;;32.40;51.00;;;;;;5068069;28;20197;-45
2022/08/05 11:39:50;;;;;;;2.95;2.05;;;32.50;51.30;;;;;;5067059;28;20200;-46
2022/08/05 11:42:24;;;;;;;1.70;1.58;;;32.50;50.90;;;;;;5065829;28;20189;-46
2022/08/05 11:44:51;;;;;;;2.30;2.10;;;32.50;50.80;;;;;;5063050;28;20192;-43
2022/08/05 11:47:22;;;;;;;2.25;1.90;;;32.60;50.80;;;;;;5067141;28;20712;-43
2022/08/05 11:49:56;;;;;;;2.38;2.00;;;32.60;50.80;;;;;;5067295;28;20248;-47
2022/08/05 11:52:26;;;;;;;2.00;1.90;;;32.70;50.40;;;;;;5063833;28;20246;-47
2022/08/05 11:54:53;;;;;;;2.17;2.00;;;32.70;49.60;;;;;;5064501;28;20182;-43
2022/08/05 11:57:21;;;;;;;2.78;2.20;;;32.80;48.70;;;;;;5067374;28;20641;-46
2022/08/05 11:59:48;;;;;;;2.00;1.90;;;32.80;48.20;;;;;;5064900;28;20619;-42
2022/08/05 12:02:15;;;;;;;2.65;1.90;;;32.90;47.80;;;;;;5067707;28;20284;-41
2022/08/05 12:04:45;;;;;;;3.10;2.05;;;32.90;47.50;;;;;;5067508;28;20660;-51
2022/08/05 12:07:14;;;;;;;2.40;2.30;;;32.90;47.10;;;;;;5069535;28;20194;-48
2022/08/05 12:09:47;;;;;;;1.98;1.80;;;33.00;47.40;;;;;;5064845;28;20206;-45
2022/08/05 12:12:22;;;;;;;3.92;1.80;;;33.00;47.90;;;;;;5066410;28;20188;-46
2022/08/05 12:14:49;;;;;;;3.40;1.90;;;33.00;48.50;;;;;;5064897;28;20191;-45
2022/08/05 12:17:16;;;;;;;1.90;1.80;;;33.00;48.00;;;;;;5066888;28;20656;-40
2022/08/05 12:19:45;;;;;;;1.92;1.83;;;33.10;48.00;;;;;;5062783;28;20284;-38
2022/08/05 12:22:13;;;;;;;1.92;1.83;;;33.10;48.10;;;;;;5063073;28;20197;-39
2022/08/05 12:24:46;;;;;;;3.42;2.05;;;33.10;48.40;;;;;;5066283;28;20291;-41
2022/08/05 12:27:21;;;;;;;2.25;1.60;;;33.20;48.30;;;;;;5064299;28;20319;-40
2022/08/05 12:29:59;;;;;;;4.90;1.90;;;33.30;48.20;;;;;;5063212;28;20617;-40
2022/08/05 12:32:26;;;;;;;9.98;2.40;;;33.30;47.10;;;;;;5066844;28;20561;-40
2022/08/05 12:34:53;;;;;;;1.83;1.70;;;33.30;46.60;;;;;;5067021;28;20193;-40
2022/08/05 12:37:20;;;;;;;2.33;1.88;;;33.30;46.10;;;;;;5063582;28;20190;-40
2022/08/05 12:39:50;;;;;;;2.22;2.03;;;33.30;46.20;;;;;;5066723;28;20197;-39
2022/08/05 12:42:18;;;;;;;1.80;1.70;;;33.30;46.10;;;;;;5064564;28;20195;-44
2022/08/05 12:44:46;;;;;;;5.47;1.95;;;33.30;46.10;;;;;;5061434;28;20189;-43
2022/08/05 12:47:13;;;;;;;1.90;1.80;;;33.40;46.60;;;;;;5065898;28;20233;-42
2022/08/05 12:49:43;;;;;;;1.98;1.65;;;33.40;46.60;;;;;;5066659;28;20197;-43
2022/08/05 12:52:14;;;;;;;1.80;1.70;;;33.50;46.80;;;;;;5066092;28;20201;-45
2022/08/05 12:54:44;;;;;;;3.35;1.88;;;33.50;46.80;;;;;;5065225;28;20205;-40
2022/08/05 12:57:12;;;;;;;4.68;2.25;;;33.50;46.40;;;;;;5065975;28;20741;-39
2022/08/05 12:59:48;;;;;;;2.42;1.65;;;33.50;45.90;;;;;;5064007;28;20189;-43
2022/08/05 13:02:20;;;;;;;1.98;1.60;;;33.50;44.90;;;;;;5067749;28;20185;-41
2022/08/05 13:04:49;;;;;;;3.13;2.00;;;33.50;45.10;;;;;;5068388;28;20219;-42